CDT,Max TemperatureF,Mean TemperatureF,Min TemperatureF,Max Dew PointF,MeanDew PointF,Min DewpointF,Max Humidity, Mean Humidity, Min Humidity, Max Sea Level PressureIn, Mean Sea Level PressureIn, Min Sea Level PressureIn, Max VisibilityMiles, Mean VisibilityMiles, Min VisibilityMiles, Max Wind SpeedMPH, Mean Wind SpeedMPH, Max Gust SpeedMPH,PrecipitationIn, CloudCover, Events, WindDirDegrees
2012-9-1,97,79,61,54,45,34,67,39,11,30.09,29.96,29.89,10,10,10,20,9,28,0.00,0,,161
2012-9-2,104,84,64,53,47,39,67,40,12,29.91,29.84,29.76,10,10,10,23,12,31,0.00,0,,167
2012-9-3,99,81,63,54,50,47,65,42,18,29.89,29.85,29.78,10,10,9,25,10,31,0.00,0,,3
2012-9-4,96,82,68,57,53,50,57,40,22,29.91,29.84,29.75,10,10,10,18,7,25,T,1,Thunderstorm,188
2012-9-5,87,75,62,61,53,43,90,58,26,29.99,29.89,29.81,10,10,10,21,9,25,0.00,0,,68
2012-9-6,97,78,59,64,56,12,93,52,10,30.01,29.87,29.75,10,10,7,21,10,30,0.00,1,,182
2012-9-7,70,61,52,64,52,43,87,66,44,30.23,30.00,29.78,10,10,10,38,15,46,0.00,2,,50
2012-9-8,83,64,45,44,39,33,77,47,17,30.30,30.21,30.09,10,10,8,15,6,23,0.00,0,,318
2012-9-9,87,69,50,44,39,33,61,38,15,30.26,30.13,30.06,10,10,10,17,10,22,0.00,0,,113
2012-9-10,92,72,52,43,40,32,66,40,14,30.06,29.95,29.85,10,10,10,28,15,37,0.00,0,,169
2012-9-11,99,82,64,45,41,36,40,28,15,29.87,29.77,29.66,10,10,6,32,19,43,0.00,0,,175
2012-9-12,81,67,52,52,45,39,100,63,26,30.27,29.95,29.73,10,9,5,32,21,40,0.32,3,Rain,4
2012-9-13,64,55,46,52,48,40,100,72,44,30.45,30.36,30.25,10,10,7,23,15,29,0.15,4,Rain,22
2012-9-14,73,58,42,43,36,25,89,54,19,30.44,30.38,30.30,10,10,10,15,7,22,0.00,0,,32
2012-9-15,79,60,41,48,39,34,86,54,21,30.29,30.17,30.06,10,9,6,10,4,14,0.00,0,,240
2012-9-16,84,64,44,49,44,36,100,59,18,30.08,30.01,29.87,10,6,0,16,8,20,0.00,0,Fog-Rain,172
2012-9-17,72,60,47,48,45,41,86,63,40,30.15,29.98,29.83,10,10,10,28,14,32,0.00,0,,14
2012-9-18,81,62,42,45,41,38,89,55,21,30.16,30.06,29.94,10,10,9,21,9,30,0.00,0,,247
2012-9-19,95,71,47,43,36,27,71,40,9,30.01,29.93,29.84,10,10,10,25,10,32,0.00,0,,275
2012-9-20,84,67,50,40,36,32,59,38,16,30.09,29.99,29.92,10,10,10,15,8,18,0.00,0,,97
2012-9-21,87,70,53,43,36,31,61,37,13,30.01,29.97,29.93,10,10,6,15,7,20,0.00,0,,356
2012-9-22,76,63,50,39,34,32,59,40,21,30.27,30.15,30.01,10,10,5,24,13,31,0.00,0,,53
2012-9-23,75,60,44,40,35,28,76,49,22,30.30,30.17,30.08,10,10,6,24,11,30,0.04,1,Rain-Thunderstorm,108
2012-9-24,82,65,47,48,41,37,71,47,23,30.05,29.91,29.80,10,10,8,16,7,18,0.00,0,,60
2012-9-25,85,70,55,55,49,46,84,56,27,29.89,29.80,29.73,10,10,10,23,13,28,0.03,1,Rain-Thunderstorm,56
2012-9-26,80,69,57,58,54,51,86,63,39,30.19,29.98,29.83,10,10,6,44,13,49,0.06,2,Rain-Thunderstorm,62
2012-9-27,73,65,56,59,57,53,97,75,53,30.21,30.13,30.04,10,6,0,25,8,31,0.87,7,Fog-Rain-Thunderstorm,71
2012-9-28,72,64,56,59,57,54,100,79,57,30.20,30.13,30.06,10,8,2,17,7,21,0.09,6,Rain-Thunderstorm,43
2012-9-29,72,64,56,59,57,54,100,77,53,30.18,30.12,30.02,10,5,0,12,5,14,0.00,6,Fog,78
2012-9-30,77,64,50,58,53,49,100,72,43,30.09,30.02,29.88,10,4,0,31,3,37,0.01,2,Fog-Rain,258